Cleveland, Ohio
Traffic Map
Current Weather Conditions
Cleveland, Ohio
Clear
Clear
67°
Feels Like: 67°
Wind Chill: 67° Ceiling: Unl
Heat Index: 67° Visibility: 10mi
Dew Point: 57° Wind: 8mph
Humidity: 70% Direction: 70° (ENE)
Pressure: 30.09in Gusts: 0mph
Raw Report DataKBKL 280453Z AUTO 07007KT 10SM CLR 19/14 A3009 RMK AO2 SLP187 T01940139 402390194 TSNO $
Traffic Incident Summary
Active as of:
Severity:
Category:
InformationThere was an issue retrieving the traffic information for this location. Please try a different location or try again shortly.
Advertisements
Track Severe Weather on mobile